createdAt,value
2023-12-09T00:01:46.600Z,100652.19
2023-12-09T00:03:49.677Z,100653.94
2023-12-09T00:05:52.700Z,100657.38
2023-12-09T00:07:55.515Z,100663.44
2023-12-09T00:09:58.257Z,100664.34
2023-12-09T00:12:01.030Z,100659.09
2023-12-09T00:14:05.497Z,100657.38
2023-12-09T00:16:08.808Z,100655.63
2023-12-09T00:18:12.105Z,100660.84
2023-12-09T00:20:14.939Z,100664.31
2023-12-09T00:22:17.759Z,100659.97
2023-12-09T00:24:21.066Z,100663.44
2023-12-09T00:26:23.925Z,100666.06
2023-12-09T00:28:27.323Z,100663.47
2023-12-09T00:30:30.137Z,100647.81
2023-12-09T00:32:33.071Z,100655.59
2023-12-09T00:34:36.501Z,100657.34
2023-12-09T00:36:39.262Z,100656.47
2023-12-09T00:38:42.031Z,100658.22
2023-12-09T00:40:44.812Z,100659.09
2023-12-09T00:42:47.973Z,100648.69
2023-12-09T00:44:50.818Z,100645.22
2023-12-09T00:46:53.572Z,100645.19
2023-12-09T00:48:56.460Z,100646.06
2023-12-09T00:50:59.322Z,100647.81
2023-12-09T00:53:02.085Z,100649.59
2023-12-09T00:55:05.541Z,100646.13
2023-12-09T00:57:08.325Z,100658.25
2023-12-09T00:59:11.138Z,100655.59
2023-12-09T01:01:14.886Z,100647.78
2023-12-09T01:03:17.904Z,100659.97
2023-12-09T01:05:20.689Z,100659.97
2023-12-09T01:07:23.445Z,100659.13
2023-12-09T01:09:26.990Z,100661.69
2023-12-09T01:11:29.775Z,100663.44
2023-12-09T01:13:32.527Z,100656.47
2023-12-09T01:15:35.381Z,100646.06
2023-12-09T01:17:38.162Z,100657.38
2023-12-09T01:19:41.504Z,100648.69
2023-12-09T01:21:44.313Z,100653.00
2023-12-09T01:23:47.095Z,100651.25
2023-12-09T01:25:49.843Z,100646.91
2023-12-09T01:27:53.694Z,100650.44
2023-12-09T01:29:56.619Z,100649.59
2023-12-09T01:31:59.381Z,100651.31
2023-12-09T01:34:02.288Z,100650.44
2023-12-09T01:36:05.804Z,100649.59
2023-12-09T01:38:08.769Z,100643.50
2023-12-09T01:40:15.348Z,100648.72
2023-12-09T01:42:18.128Z,100645.25
2023-12-09T01:44:20.920Z,100647.00
2023-12-09T01:46:24.052Z,100651.34
2023-12-09T01:48:27.006Z,100653.09
2023-12-09T01:50:31.488Z,100646.13
2023-12-09T01:52:35.540Z,100639.22
2023-12-09T01:54:38.341Z,100636.59
2023-12-09T01:56:41.283Z,100650.47
2023-12-09T01:58:44.084Z,100652.22
2023-12-09T02:00:47.479Z,100653.94
2023-12-09T02:02:50.832Z,100655.69
2023-12-09T02:04:55.379Z,100652.22
2023-12-09T02:06:58.203Z,100648.72
2023-12-09T02:09:01.101Z,100646.09
2023-12-09T02:11:16.032Z,100655.66
2023-12-09T02:13:24.360Z,100653.06
2023-12-09T02:15:46.321Z,100647.00
2023-12-09T02:17:57.367Z,100647.81
2023-12-09T02:20:01.733Z,100657.38
2023-12-09T02:22:07.265Z,100647.78
2023-12-09T02:24:10.038Z,100642.63
2023-12-09T02:26:22.092Z,100643.50
2023-12-09T02:28:28.332Z,100638.28
2023-12-09T02:30:42.934Z,100643.50
2023-12-09T02:32:46.929Z,100638.31
2023-12-09T02:34:52.357Z,100634.00
2023-12-09T02:36:58.764Z,100636.63
2023-12-09T02:39:04.935Z,100630.53
2023-12-09T02:41:08.166Z,100637.50
2023-12-09T02:43:11.466Z,100647.03
2023-12-09T02:45:14.514Z,100641.84
2023-12-09T02:47:17.306Z,100640.91
2023-12-09T02:49:20.124Z,100638.28
2023-12-09T02:51:22.994Z,100644.38
2023-12-09T02:53:25.774Z,100652.16
2023-12-09T02:55:28.521Z,100654.78
2023-12-09T02:57:31.378Z,100654.78
2023-12-09T02:59:34.161Z,100652.19
2023-12-09T03:01:36.901Z,100650.44
2023-12-09T03:03:39.885Z,100651.34
2023-12-09T03:05:42.758Z,100660.84
2023-12-09T03:07:45.512Z,100655.59
2023-12-09T03:09:48.561Z,100661.69
2023-12-09T03:11:51.320Z,100666.03
2023-12-09T03:13:54.084Z,100659.94
2023-12-09T03:15:56.870Z,100670.38
2023-12-09T03:17:59.712Z,100667.78
2023-12-09T03:20:03.887Z,100670.38
2023-12-09T03:22:06.685Z,100666.06
2023-12-09T03:24:09.603Z,100676.47
2023-12-09T03:26:19.300Z,100669.53
2023-12-09T03:28:22.053Z,100675.59
2023-12-09T03:30:25.894Z,100671.28
2023-12-09T03:32:28.945Z,100677.34
2023-12-09T03:34:32.019Z,100674.72
2023-12-09T03:36:34.875Z,100670.41
2023-12-09T03:38:37.667Z,100673.88
2023-12-09T03:40:40.425Z,100673.00
2023-12-09T03:42:43.188Z,100681.66
2023-12-09T03:44:45.967Z,100681.66
2023-12-09T03:46:48.717Z,100678.19
2023-12-09T03:48:51.762Z,100674.72
2023-12-09T03:50:54.735Z,100676.47
2023-12-09T03:52:57.495Z,100678.22
2023-12-09T03:55:00.351Z,100678.19
2023-12-09T03:57:03.155Z,100671.28
2023-12-09T03:59:05.884Z,100672.19
2023-12-09T04:01:08.837Z,100679.97
2023-12-09T04:03:12.350Z,100678.22
2023-12-09T04:05:15.336Z,100680.84
2023-12-09T04:07:18.132Z,100669.59
2023-12-09T04:09:23.589Z,100673.91
2023-12-09T04:11:26.455Z,100672.16
2023-12-09T04:13:29.607Z,100675.63
2023-12-09T04:15:32.429Z,100678.25
2023-12-09T04:17:35.409Z,100670.44
2023-12-09T04:19:38.353Z,100673.06
2023-12-09T04:21:41.278Z,100675.63
2023-12-09T04:23:44.032Z,100678.25
2023-12-09T04:25:46.800Z,100676.50
2023-12-09T04:27:49.877Z,100676.50
2023-12-09T04:29:52.672Z,100673.88
2023-12-09T04:31:56.042Z,100680.84
2023-12-09T04:33:59.673Z,100683.41
2023-12-09T04:36:04.171Z,100686.91
2023-12-09T04:38:06.987Z,100687.78
2023-12-09T04:40:11.769Z,100690.38
2023-12-09T04:42:14.612Z,100681.72
2023-12-09T04:44:17.357Z,100679.97
2023-12-09T04:46:20.116Z,100674.75
2023-12-09T04:48:23.011Z,100687.78
2023-12-09T04:50:25.846Z,100686.94
2023-12-09T04:52:28.893Z,100684.31
2023-12-09T04:54:32.089Z,100694.72
2023-12-09T04:56:34.906Z,100688.66
2023-12-09T04:58:37.668Z,100690.41
2023-12-09T05:00:40.495Z,100693.00
2023-12-09T05:02:43.307Z,100688.63
2023-12-09T05:04:46.041Z,100689.53
2023-12-09T05:06:49.116Z,100694.72
2023-12-09T05:08:51.980Z,100688.66
2023-12-09T05:10:54.728Z,100689.50
2023-12-09T05:12:58.134Z,100688.66
2023-12-09T05:15:00.995Z,100679.13
2023-12-09T05:17:03.869Z,100679.09
2023-12-09T05:19:09.672Z,100682.53
2023-12-09T05:21:15.239Z,100680.81
2023-12-09T05:23:18.030Z,100684.31
2023-12-09T05:25:20.990Z,100693.84
2023-12-09T05:27:23.771Z,100701.63
2023-12-09T05:29:26.578Z,100699.03
2023-12-09T05:31:29.314Z,100704.22
2023-12-09T05:33:32.179Z,100699.88
2023-12-09T05:35:35.007Z,100702.50
2023-12-09T05:37:37.957Z,100709.44
2023-12-09T05:39:40.762Z,100707.69
2023-12-09T05:41:43.529Z,100703.38
2023-12-09T05:43:46.310Z,100708.59
2023-12-09T05:45:49.091Z,100701.69
2023-12-09T05:47:51.994Z,100702.53
2023-12-09T05:49:54.871Z,100690.41
2023-12-09T05:51:58.014Z,100689.56
2023-12-09T05:54:00.818Z,100686.06
2023-12-09T05:56:03.639Z,100693.00
2023-12-09T05:58:07.544Z,100684.34
2023-12-09T06:00:13.583Z,100690.41
2023-12-09T06:02:16.356Z,100687.78
2023-12-09T06:04:19.162Z,100691.25
2023-12-09T06:06:22.021Z,100688.63
2023-12-09T06:08:24.976Z,100690.34
2023-12-09T06:10:27.714Z,100697.25
2023-12-09T06:12:30.742Z,100703.38
2023-12-09T06:14:33.756Z,100704.22
2023-12-09T06:16:36.573Z,100700.75
2023-12-09T06:18:39.725Z,100699.06
2023-12-09T06:20:42.522Z,100695.59
2023-12-09T06:22:45.423Z,100702.53
2023-12-09T06:24:48.210Z,100688.66
2023-12-09T06:26:50.985Z,100694.72
2023-12-09T06:28:54.361Z,100695.56
2023-12-09T06:30:57.213Z,100697.31
2023-12-09T06:33:00.234Z,100693.84
2023-12-09T06:35:03.144Z,100690.38
2023-12-09T06:37:05.957Z,100702.53
2023-12-09T06:39:08.750Z,100700.78
2023-12-09T06:41:11.512Z,100694.69
2023-12-09T06:43:14.249Z,100703.34
2023-12-09T06:45:17.576Z,100697.28
2023-12-09T06:47:20.414Z,100702.50
2023-12-09T06:49:23.238Z,100700.75
2023-12-09T06:51:26.384Z,100699.94
2023-12-09T06:53:29.204Z,100699.03
2023-12-09T06:55:31.977Z,100700.78
2023-12-09T06:57:35.848Z,100709.44
2023-12-09T06:59:38.787Z,100706.84
2023-12-09T07:01:43.807Z,100706.81
2023-12-09T07:03:46.769Z,100709.44
2023-12-09T07:05:49.630Z,100701.66
2023-12-09T07:07:52.481Z,100709.47
2023-12-09T07:09:57.205Z,100699.03
2023-12-09T07:12:02.409Z,100708.56
2023-12-09T07:14:06.319Z,100702.50
2023-12-09T07:16:11.045Z,100702.47
2023-12-09T07:18:15.246Z,100702.50
2023-12-09T07:20:19.413Z,100710.28
2023-12-09T07:22:23.652Z,100715.50
2023-12-09T07:24:26.457Z,100714.59
2023-12-09T07:26:29.403Z,100710.25
2023-12-09T07:28:32.165Z,100711.13
2023-12-09T07:30:34.968Z,100706.78
2023-12-09T07:32:37.844Z,100711.13
2023-12-09T07:34:41.148Z,100710.25
2023-12-09T07:36:44.475Z,100716.31
2023-12-09T07:38:47.265Z,100718.91
2023-12-09T07:40:50.015Z,100712.84
2023-12-09T07:42:52.787Z,100714.56
2023-12-09T07:44:55.566Z,100709.34
2023-12-09T07:46:58.310Z,100709.38
2023-12-09T07:49:01.133Z,100701.53
2023-12-09T07:51:04.059Z,100707.59
2023-12-09T07:53:07.154Z,100710.16
2023-12-09T07:55:10.499Z,100706.72
2023-12-09T07:57:13.284Z,100712.78
2023-12-09T07:59:16.112Z,100713.63
2023-12-09T08:01:19.620Z,100714.47
2023-12-09T08:03:22.549Z,100712.72
2023-12-09T08:05:25.408Z,100717.91
2023-12-09T08:07:28.540Z,100710.13
2023-12-09T08:09:31.499Z,100706.66
2023-12-09T08:11:34.309Z,100697.13
2023-12-09T08:13:37.100Z,100704.09
2023-12-09T08:15:39.902Z,100700.53
2023-12-09T08:17:42.784Z,100704.03
2023-12-09T08:19:45.646Z,100707.44
2023-12-09T08:21:48.499Z,100709.13
2023-12-09T08:23:51.308Z,100704.88
2023-12-09T08:25:54.058Z,100718.75
2023-12-09T08:27:56.819Z,100709.16
2023-12-09T08:29:59.607Z,100715.22
2023-12-09T08:32:02.523Z,100707.41
2023-12-09T08:34:05.696Z,100714.38
2023-12-09T08:36:08.801Z,100709.09
2023-12-09T08:38:11.577Z,100704.78
2023-12-09T08:40:14.448Z,100708.19
2023-12-09T08:42:17.290Z,100708.19
2023-12-09T08:44:20.576Z,100710.75
2023-12-09T08:46:23.378Z,100709.00
2023-12-09T08:48:26.273Z,100709.94
2023-12-09T08:50:29.201Z,100719.47
2023-12-09T08:52:32.886Z,100716.88
2023-12-09T08:54:35.655Z,100710.78
2023-12-09T08:56:38.489Z,100718.47
2023-12-09T08:58:41.244Z,100715.88
2023-12-09T09:00:44.143Z,100717.59
2023-12-09T09:02:48.427Z,100724.44
2023-12-09T09:04:51.253Z,100727.03
2023-12-09T09:06:54.016Z,100720.94
2023-12-09T09:08:56.787Z,100720.91
2023-12-09T09:10:59.544Z,100715.84
2023-12-09T09:13:02.306Z,100710.56
2023-12-09T09:15:07.572Z,100713.13
2023-12-09T09:17:11.467Z,100712.25
2023-12-09T09:19:14.304Z,100710.53
2023-12-09T09:21:18.025Z,100704.44
2023-12-09T09:23:20.836Z,100713.13
2023-12-09T09:25:23.629Z,100712.19
2023-12-09T09:27:26.996Z,100713.97
2023-12-09T09:29:29.874Z,100709.59
2023-12-09T09:31:32.671Z,100718.28
2023-12-09T09:33:35.613Z,100712.22
2023-12-09T09:35:38.427Z,100712.22
2023-12-09T09:37:41.214Z,100707.91
2023-12-09T09:39:44.272Z,100701.97
2023-12-09T09:42:10.911Z,100696.78
2023-12-09T09:44:19.965Z,100690.63
2023-12-09T09:46:23.374Z,100688.81
2023-12-09T09:48:28.536Z,100692.38
2023-12-09T09:50:39.126Z,100694.25
2023-12-09T09:52:42.723Z,100702.03
2023-12-09T09:54:46.999Z,100688.16
2023-12-09T09:56:51.596Z,100679.53
2023-12-09T09:58:54.679Z,100681.19
2023-12-09T10:00:58.418Z,100677.66
2023-12-09T10:03:04.225Z,100676.63
2023-12-09T10:05:07.482Z,100675.81
2023-12-09T10:07:10.466Z,100670.72
2023-12-09T10:09:14.029Z,100671.47
2023-12-09T10:11:16.869Z,100668.84
2023-12-09T10:13:19.620Z,100665.28
2023-12-09T10:15:22.724Z,100666.25
2023-12-09T10:17:26.415Z,100657.63
2023-12-09T10:19:29.415Z,100656.97
2023-12-09T10:21:32.301Z,100648.16
2023-12-09T10:23:36.812Z,100645.59
2023-12-09T10:25:41.169Z,100650.78
2023-12-09T10:27:44.213Z,100642.13
2023-12-09T10:29:47.913Z,100649.09
2023-12-09T10:31:51.787Z,100647.31
2023-12-09T10:33:54.683Z,100642.13
2023-12-09T10:36:01.419Z,100637.06
2023-12-09T10:38:06.088Z,100636.97
2023-12-09T10:40:10.197Z,100633.41
2023-12-09T10:42:13.495Z,100630.84
2023-12-09T10:44:17.953Z,100624.69
2023-12-09T10:46:20.822Z,100632.53
2023-12-09T10:48:23.786Z,100633.25
2023-12-09T10:50:26.943Z,100637.63
2023-12-09T10:52:30.638Z,100635.81
2023-12-09T10:54:33.568Z,100631.34
2023-12-09T10:56:36.388Z,100632.28
2023-12-09T10:58:41.983Z,100635.75
2023-12-09T11:00:45.105Z,100632.44
2023-12-09T11:02:49.272Z,100623.78
2023-12-09T11:04:53.663Z,100621.94
2023-12-09T11:07:03.536Z,100630.66
2023-12-09T11:09:09.093Z,100631.41
2023-12-09T11:11:12.745Z,100614.00
2023-12-09T11:13:15.800Z,100614.00
2023-12-09T11:15:29.732Z,100608.72
2023-12-09T11:17:35.878Z,100619.97
2023-12-09T11:19:39.099Z,100618.22
2023-12-09T11:21:46.556Z,100620.91
2023-12-09T11:23:51.563Z,100614.84
2023-12-09T11:25:54.348Z,100621.69
2023-12-09T11:27:59.381Z,100625.13
2023-12-09T11:30:02.638Z,100625.16
2023-12-09T11:32:08.214Z,100622.66
2023-12-09T11:34:17.225Z,100633.84
2023-12-09T11:36:20.161Z,100620.78
2023-12-09T11:38:24.852Z,100625.97
2023-12-09T11:40:32.362Z,100622.47
2023-12-09T11:42:37.689Z,100613.00
2023-12-09T11:44:42.677Z,100613.78
2023-12-09T11:46:47.026Z,100612.09
2023-12-09T11:48:53.397Z,100605.97
2023-12-09T11:50:56.214Z,100608.66
2023-12-09T11:52:59.598Z,100605.16
2023-12-09T11:55:05.284Z,100599.06
2023-12-09T11:57:08.057Z,100591.28
2023-12-09T11:59:11.205Z,100599.94
2023-12-09T12:01:14.025Z,100603.44
2023-12-09T12:03:16.894Z,100595.63
2023-12-09T12:05:19.788Z,100596.56
2023-12-09T12:07:22.814Z,100605.25
2023-12-09T12:09:25.752Z,100607.84
2023-12-09T12:11:28.723Z,100599.28
2023-12-09T12:13:52.809Z,100597.50
2023-12-09T12:15:56.187Z,100593.13
2023-12-09T12:18:02.513Z,100590.56
2023-12-09T12:20:07.516Z,100587.06
2023-12-09T12:22:10.288Z,100583.59
2023-12-09T12:24:13.093Z,100591.38
2023-12-09T12:26:15.875Z,100584.41
2023-12-09T12:28:18.638Z,100586.13
2023-12-09T12:30:21.457Z,100583.53
2023-12-09T12:32:24.291Z,100576.59
2023-12-09T12:34:27.591Z,100582.75
2023-12-09T12:36:30.684Z,100581.00
2023-12-09T12:38:33.634Z,100587.06
2023-12-09T12:40:36.377Z,100581.91
2023-12-09T12:42:39.632Z,100577.53
2023-12-09T12:44:43.176Z,100584.59
2023-12-09T12:46:46.359Z,100581.16
2023-12-09T12:48:49.362Z,100572.38
2023-12-09T12:50:52.466Z,100568.88
2023-12-09T12:52:55.537Z,100567.28
2023-12-09T12:54:58.369Z,100565.53
2023-12-09T12:57:01.189Z,100562.91
2023-12-09T12:59:03.950Z,100563.75
2023-12-09T13:01:07.421Z,100566.28
2023-12-09T13:03:10.278Z,100569.03
2023-12-09T13:05:13.179Z,100570.84
2023-12-09T13:07:15.959Z,100565.69
2023-12-09T13:09:18.792Z,100556.97
2023-12-09T13:11:21.647Z,100556.88
2023-12-09T13:13:25.128Z,100557.75
2023-12-09T13:15:28.464Z,100550.88
2023-12-09T13:17:31.311Z,100563.00
2023-12-09T13:19:34.171Z,100562.06
2023-12-09T13:21:37.287Z,100565.56
2023-12-09T13:23:40.126Z,100563.00
2023-12-09T13:25:42.916Z,100556.94
2023-12-09T13:27:46.165Z,100552.63
2023-12-09T13:29:48.985Z,100552.56
2023-12-09T13:31:51.752Z,100550.94
2023-12-09T13:33:54.612Z,100559.63
2023-12-09T13:35:57.608Z,100562.31
2023-12-09T13:38:03.538Z,100562.28
2023-12-09T13:40:08.828Z,100565.78
2023-12-09T13:42:13.867Z,100560.47
2023-12-09T13:44:16.795Z,100558.81
2023-12-09T13:46:19.714Z,100557.06
2023-12-09T13:48:22.779Z,100553.59
2023-12-09T13:50:27.645Z,100553.59
2023-12-09T13:52:35.349Z,100545.81
2023-12-09T13:54:38.330Z,100553.72
2023-12-09T13:56:41.344Z,100550.22
2023-12-09T13:58:44.092Z,100551.06
2023-12-09T14:00:47.031Z,100545.84
2023-12-09T14:02:50.012Z,100540.75
2023-12-09T14:04:53.718Z,100543.31
2023-12-09T14:06:56.579Z,100539.00
2023-12-09T14:08:59.351Z,100538.22
2023-12-09T14:11:02.103Z,100531.38
2023-12-09T14:13:04.904Z,100527.03
2023-12-09T14:15:08.909Z,100533.06
2023-12-09T14:17:13.126Z,100520.91
2023-12-09T14:19:16.535Z,100536.47
2023-12-09T14:21:19.432Z,100539.13
2023-12-09T14:23:22.213Z,100535.69
2023-12-09T14:25:25.040Z,100528.84
2023-12-09T14:27:27.874Z,100528.78
2023-12-09T14:29:30.698Z,100527.09
2023-12-09T14:31:34.328Z,100522.75
2023-12-09T14:33:39.559Z,100527.97
2023-12-09T14:35:43.043Z,100518.44
2023-12-09T14:37:49.789Z,100521.97
2023-12-09T14:39:52.601Z,100514.13
2023-12-09T14:41:55.403Z,100514.13
2023-12-09T14:44:03.406Z,100514.19
2023-12-09T14:46:08.821Z,100504.66
2023-12-09T14:48:12.869Z,100504.69
2023-12-09T14:50:15.969Z,100494.25
2023-12-09T14:52:18.988Z,100483.84
2023-12-09T14:54:21.909Z,100490.81
2023-12-09T14:56:24.690Z,100499.44
2023-12-09T14:58:28.310Z,100500.31
2023-12-09T15:00:31.838Z,100495.09
2023-12-09T15:02:34.695Z,100503.72
2023-12-09T15:04:38.210Z,100497.66
2023-12-09T15:06:41.172Z,100495.09
2023-12-09T15:08:44.042Z,100493.41
2023-12-09T15:10:47.140Z,100490.03
2023-12-09T15:12:49.985Z,100482.19
2023-12-09T15:14:52.966Z,100483.91
2023-12-09T15:16:55.771Z,100481.41
2023-12-09T15:18:58.830Z,100478.72
2023-12-09T15:21:01.693Z,100486.50
2023-12-09T15:23:04.462Z,100487.38
2023-12-09T15:25:07.510Z,100477.84
2023-12-09T15:27:10.691Z,100470.13
2023-12-09T15:29:13.474Z,100468.41
2023-12-09T15:31:16.275Z,100467.59
2023-12-09T15:33:19.743Z,100458.03
2023-12-09T15:35:22.592Z,100461.59
2023-12-09T15:37:25.393Z,100462.50
2023-12-09T15:39:28.140Z,100458.19
2023-12-09T15:41:31.732Z,100457.25
2023-12-09T15:43:34.630Z,100462.47
2023-12-09T15:45:37.413Z,100460.69
2023-12-09T15:47:40.318Z,100472.84
2023-12-09T15:49:43.229Z,100472.81
2023-12-09T15:51:46.061Z,100476.22
2023-12-09T15:53:48.870Z,100473.69
2023-12-09T15:55:51.628Z,100463.31
2023-12-09T15:57:59.026Z,100467.63
2023-12-09T16:00:01.885Z,100470.25
2023-12-09T16:02:07.714Z,100472.00
2023-12-09T16:04:10.634Z,100467.63
2023-12-09T16:06:13.514Z,100473.66
2023-12-09T16:08:16.321Z,100462.44
2023-12-09T16:10:19.576Z,100469.34
2023-12-09T16:12:22.466Z,100465.03
2023-12-09T16:14:25.473Z,100464.13
2023-12-09T16:16:28.403Z,100459.00
2023-12-09T16:18:31.385Z,100458.16
2023-12-09T16:20:34.891Z,100464.16
2023-12-09T16:22:38.578Z,100460.78
2023-12-09T16:24:41.478Z,100452.94
2023-12-09T16:26:44.963Z,100446.03
2023-12-09T16:28:48.016Z,100456.41
2023-12-09T16:30:50.921Z,100463.38
2023-12-09T16:32:53.928Z,100452.94
2023-12-09T16:34:56.754Z,100443.44
2023-12-09T16:36:59.955Z,100439.16
2023-12-09T16:39:02.813Z,100434.81
2023-12-09T16:41:05.782Z,100442.59
2023-12-09T16:43:08.633Z,100443.38
2023-12-09T16:45:12.677Z,100436.44
2023-12-09T16:47:17.158Z,100440.78
2023-12-09T16:49:20.283Z,100439.09
2023-12-09T16:51:23.163Z,100444.31
2023-12-09T16:53:26.041Z,100434.78
2023-12-09T16:55:28.792Z,100438.19
2023-12-09T16:57:31.690Z,100443.38
2023-12-09T16:59:34.540Z,100444.31
2023-12-09T17:01:40.374Z,100436.50
2023-12-09T17:03:43.302Z,100437.34
2023-12-09T17:05:46.218Z,100425.22
2023-12-09T17:07:50.124Z,100426.97
2023-12-09T17:09:52.921Z,100424.31
2023-12-09T17:11:55.716Z,100428.66
2023-12-09T17:13:58.505Z,100415.72
2023-12-09T17:16:01.261Z,100414.84
2023-12-09T17:18:04.500Z,100420.03
2023-12-09T17:20:08.144Z,100422.59
2023-12-09T17:22:10.893Z,100419.16
2023-12-09T17:24:13.712Z,100420.84
2023-12-09T17:26:16.531Z,100424.34
2023-12-09T17:28:19.999Z,100420.88
2023-12-09T17:30:22.956Z,100420.94
2023-12-09T17:32:25.869Z,100417.50
2023-12-09T17:34:28.857Z,100421.81
2023-12-09T17:36:32.055Z,100423.53
2023-12-09T17:38:34.839Z,100434.84
2023-12-09T17:40:37.619Z,100421.81
2023-12-09T17:42:40.531Z,100418.41
2023-12-09T17:44:43.374Z,100402.78
2023-12-09T17:46:46.792Z,100399.28
2023-12-09T17:48:49.752Z,100394.97
2023-12-09T17:50:53.028Z,100407.09
2023-12-09T17:52:55.799Z,100405.41
2023-12-09T17:54:58.558Z,100397.59
2023-12-09T17:57:01.359Z,100396.78
2023-12-09T17:59:04.139Z,100394.19
2023-12-09T18:01:07.053Z,100381.22
2023-12-09T18:03:09.971Z,100376.00
2023-12-09T18:05:13.426Z,100378.56
2023-12-09T18:07:17.348Z,100366.41
2023-12-09T18:09:20.481Z,100368.19
2023-12-09T18:11:23.596Z,100372.47
2023-12-09T18:13:26.368Z,100377.63
2023-12-09T18:15:29.234Z,100380.25
2023-12-09T18:17:32.043Z,100393.19
2023-12-09T18:19:34.952Z,100384.50
2023-12-09T18:21:37.829Z,100391.50
2023-12-09T18:23:40.744Z,100387.22
2023-12-09T18:25:43.562Z,100375.97
2023-12-09T18:27:46.568Z,100367.34
2023-12-09T18:29:49.317Z,100367.34
2023-12-09T18:31:52.079Z,100364.75
2023-12-09T18:33:55.154Z,100356.03
2023-12-09T18:35:58.014Z,100364.69
2023-12-09T18:38:00.923Z,100373.44
2023-12-09T18:40:07.113Z,100376.03
2023-12-09T18:42:10.590Z,100371.69
2023-12-09T18:44:13.423Z,100372.59
2023-12-09T18:46:17.161Z,100368.25
2023-12-09T18:48:20.364Z,100365.69
2023-12-09T18:50:23.220Z,100363.97
2023-12-09T18:52:26.279Z,100365.69
2023-12-09T18:54:29.241Z,100356.16
2023-12-09T18:56:37.795Z,100346.69
2023-12-09T18:58:40.572Z,100326.81
2023-12-09T19:00:43.477Z,100321.66
2023-12-09T19:02:47.764Z,100308.69
2023-12-09T19:04:51.071Z,100303.53
2023-12-09T19:06:59.344Z,100295.72
2023-12-09T19:09:03.885Z,100299.19
2023-12-09T19:11:07.358Z,100290.53
2023-12-09T19:13:10.415Z,100287.00
2023-12-09T19:15:14.233Z,100286.09
2023-12-09T19:17:17.414Z,100293.06
2023-12-09T19:19:23.396Z,100291.31
2023-12-09T19:21:26.402Z,100283.53
2023-12-09T19:23:29.224Z,100275.00
2023-12-09T19:25:31.988Z,100278.38
2023-12-09T19:27:34.784Z,100280.97
2023-12-09T19:29:40.455Z,100281.03
2023-12-09T19:31:46.933Z,100291.41
2023-12-09T19:33:49.966Z,100293.16
2023-12-09T19:35:52.883Z,100281.06
2023-12-09T19:37:56.419Z,100278.44
2023-12-09T19:39:59.174Z,100279.38
2023-12-09T19:42:01.948Z,100269.91
2023-12-09T19:44:05.067Z,100268.19
2023-12-09T19:46:07.904Z,100262.13
2023-12-09T19:48:10.828Z,100253.47
2023-12-09T19:50:13.871Z,100249.13
2023-12-09T19:52:16.825Z,100250.91
2023-12-09T19:54:19.692Z,100241.44
2023-12-09T19:56:22.993Z,100241.50
2023-12-09T19:58:25.755Z,100235.44
2023-12-09T20:00:28.931Z,100242.34
2023-12-09T20:02:31.884Z,100234.53
2023-12-09T20:04:34.864Z,100227.63
2023-12-09T20:06:38.657Z,100222.44
2023-12-09T20:08:41.719Z,100224.97
2023-12-09T20:10:45.930Z,100226.66
2023-12-09T20:12:49.477Z,100221.63
2023-12-09T20:14:52.417Z,100221.59
2023-12-09T20:16:55.278Z,100209.53
2023-12-09T20:18:58.186Z,100203.47
2023-12-09T20:21:01.954Z,100206.06
2023-12-09T20:23:05.597Z,100199.97
2023-12-09T20:25:08.761Z,100206.00
2023-12-09T20:27:11.667Z,100212.03
2023-12-09T20:29:14.464Z,100202.50
2023-12-09T20:31:17.693Z,100206.75
2023-12-09T20:33:20.527Z,100201.53
2023-12-09T20:35:23.447Z,100204.13
2023-12-09T20:37:26.272Z,100205.88
2023-12-09T20:39:29.147Z,100204.09
2023-12-09T20:41:31.936Z,100204.94
2023-12-09T20:43:34.693Z,100197.19
2023-12-09T20:45:38.183Z,100186.84
2023-12-09T20:47:42.342Z,100191.13
2023-12-09T20:49:45.385Z,100193.75
2023-12-09T20:51:48.683Z,100189.50
2023-12-09T20:53:51.569Z,100185.28
2023-12-09T20:55:54.383Z,100176.63
2023-12-09T20:57:57.178Z,100167.97
2023-12-09T20:59:59.945Z,100167.06
2023-12-09T21:02:02.761Z,100150.66
2023-12-09T21:04:05.765Z,100144.53
2023-12-09T21:06:11.702Z,100144.47
2023-12-09T21:08:14.473Z,100145.28
2023-12-09T21:10:17.380Z,100148.72
2023-12-09T21:12:20.162Z,100146.22
2023-12-09T21:14:22.969Z,100153.16
2023-12-09T21:16:25.745Z,100148.88
2023-12-09T21:18:28.704Z,100142.69
2023-12-09T21:20:32.310Z,100133.22
2023-12-09T21:22:36.022Z,100134.13
2023-12-09T21:24:39.175Z,100119.41
2023-12-09T21:26:41.926Z,100113.38
2023-12-09T21:28:44.745Z,100113.44
2023-12-09T21:30:47.535Z,100114.19
2023-12-09T21:32:50.306Z,100116.06
2023-12-09T21:34:53.102Z,100124.72
2023-12-09T21:36:55.988Z,100130.66
2023-12-09T21:38:58.803Z,100132.28
2023-12-09T21:41:01.544Z,100132.41
2023-12-09T21:43:05.305Z,100130.53
2023-12-09T21:45:08.546Z,100136.69
2023-12-09T21:47:11.424Z,100136.69
2023-12-09T21:49:14.598Z,100131.50
2023-12-09T21:51:18.486Z,100123.75
2023-12-09T21:53:21.395Z,100120.41
2023-12-09T21:55:24.697Z,100110.84
2023-12-09T21:57:28.587Z,100108.22
2023-12-09T21:59:31.353Z,100099.63
2023-12-09T22:01:36.618Z,100096.19
2023-12-09T22:03:39.698Z,100088.47
2023-12-09T22:05:42.482Z,100085.06
2023-12-09T22:07:45.241Z,100078.94
2023-12-09T22:09:48.507Z,100072.88
2023-12-09T22:11:51.553Z,100060.78
2023-12-09T22:13:54.393Z,100061.59
2023-12-09T22:15:57.293Z,100059.03
2023-12-09T22:18:00.405Z,100066.88
2023-12-09T22:20:03.504Z,100065.09
2023-12-09T22:22:06.279Z,100071.94
2023-12-09T22:24:09.162Z,100077.16
2023-12-09T22:26:11.994Z,100078.84
2023-12-09T22:28:14.816Z,100083.97
2023-12-09T22:30:17.724Z,100085.69
2023-12-09T22:32:22.296Z,100081.41
2023-12-09T22:34:26.533Z,100078.94
2023-12-09T22:36:29.385Z,100082.31
2023-12-09T22:38:32.247Z,100079.75
2023-12-09T22:40:35.230Z,100076.28
2023-12-09T22:42:38.750Z,100069.38
2023-12-09T22:44:44.496Z,100074.47
2023-12-09T22:46:47.236Z,100080.47
2023-12-09T22:48:50.212Z,100068.41
2023-12-09T22:50:54.871Z,100071.00
2023-12-09T22:52:57.732Z,100066.56
2023-12-09T22:55:00.660Z,100063.28
2023-12-09T22:57:09.637Z,100071.97
2023-12-09T22:59:12.503Z,100068.50
2023-12-09T23:01:15.384Z,100060.69
2023-12-09T23:03:18.244Z,100051.25
2023-12-09T23:05:21.044Z,100046.84
2023-12-09T23:07:24.242Z,100027.00
2023-12-09T23:09:27.115Z,100010.56
2023-12-09T23:11:29.916Z,99996.69
2023-12-09T23:13:32.757Z,99997.50
2023-12-09T23:15:35.505Z,99976.72
2023-12-09T23:17:38.383Z,99974.16
2023-12-09T23:19:42.207Z,99961.16
2023-12-09T23:21:45.040Z,99951.72
2023-12-09T23:23:47.808Z,99943.00
2023-12-09T23:25:51.135Z,99939.56
2023-12-09T23:27:53.910Z,99934.41
2023-12-09T23:29:56.665Z,99953.44